Adams Corners, New York
Current Conditions -  °F | °C
As of 12:45 PM on Thursday 27 Nov 2014 (Local Time) from KSWF Reporting Station
Light Snow Light Snow  
Wind Chill: 34°   Ceiling: 600
Heat Index: 34°   Visibility: 3mi
Dew Point: 32°   Wind: 0mph
Humidity: 93%   Direction: NA
Pressure: 29.98"   Gusts: NA
Location:  41.3969°N, 73.8382°W
Report Text: KSWF 271745Z 00000KT 3SM -SN BR OVC006 01/00 A2998
Loading
Personal Weather Stations






























Interactive Weather Map New forecast layout! Learn more

10-Day Weather Forecast

Advertisements
Track Severe Weather on mobile